sensor_id;sensor_type;location;lat;lon;timestamp;pressure;altitude;pressure_sealevel;temperature;humidity
23016;BME280;11674;52.428;13.584;2023-10-09T00:03:48;102039.75;;;12.84;84.76
23016;BME280;11674;52.428;13.584;2023-10-09T00:08:54;102014.34;;;12.66;84.77
23016;BME280;11674;52.428;13.584;2023-10-09T00:14:02;102004.88;;;12.62;84.96
23016;BME280;11674;52.428;13.584;2023-10-09T00:19:09;101995.38;;;12.58;84.71
23016;BME280;11674;52.428;13.584;2023-10-09T00:24:22;101987.59;;;12.55;85.12
23016;BME280;11674;52.428;13.584;2023-10-09T00:29:32;101975.31;;;12.51;84.95
23016;BME280;11674;52.428;13.584;2023-10-09T00:34:39;101965.56;;;12.43;84.63
23016;BME280;11674;52.428;13.584;2023-10-09T00:39:54;101942.47;;;12.38;84.99
23016;BME280;11674;52.428;13.584;2023-10-09T00:45:04;101947.72;;;12.34;84.99
23016;BME280;11674;52.428;13.584;2023-10-09T00:50:13;101937.41;;;12.30;85.22
23016;BME280;11674;52.428;13.584;2023-10-09T00:55:23;101930.16;;;12.24;85.20
23016;BME280;11674;52.428;13.584;2023-10-09T01:00:32;101929.03;;;12.20;85.28
23016;BME280;11674;52.428;13.584;2023-10-09T01:05:40;101919.00;;;12.14;85.43
23016;BME280;11674;52.428;13.584;2023-10-09T01:10:50;101913.13;;;12.10;85.29
23016;BME280;11674;52.428;13.584;2023-10-09T01:15:56;101903.91;;;12.05;85.31
23016;BME280;11674;52.428;13.584;2023-10-09T01:21:09;101892.78;;;12.05;85.44
23016;BME280;11674;52.428;13.584;2023-10-09T01:26:28;101886.94;;;12.01;85.49
23016;BME280;11674;52.428;13.584;2023-10-09T01:31:39;101872.75;;;11.98;85.61
23016;BME280;11674;52.428;13.584;2023-10-09T01:36:49;101844.94;;;11.93;85.42
23016;BME280;11674;52.428;13.584;2023-10-09T01:42:04;101829.34;;;11.92;85.73
23016;BME280;11674;52.428;13.584;2023-10-09T01:47:24;101801.53;;;11.87;85.64
23016;BME280;11674;52.428;13.584;2023-10-09T01:52:31;101783.16;;;11.81;85.52
23016;BME280;11674;52.428;13.584;2023-10-09T01:57:38;101764.56;;;11.81;85.48
23016;BME280;11674;52.428;13.584;2023-10-09T02:02:56;101749.81;;;11.81;85.56
23016;BME280;11674;52.428;13.584;2023-10-09T02:08:04;101755.91;;;11.83;85.47
23016;BME280;11674;52.428;13.584;2023-10-09T02:13:11;101745.91;;;11.82;85.70
23016;BME280;11674;52.428;13.584;2023-10-09T02:18:23;101726.44;;;11.82;85.74
23016;BME280;11674;52.428;13.584;2023-10-09T02:23:34;101730.88;;;11.78;85.59
23016;BME280;11674;52.428;13.584;2023-10-09T02:28:43;101767.59;;;11.80;85.85
23016;BME280;11674;52.428;13.584;2023-10-09T02:33:51;101761.47;;;11.78;85.63
23016;BME280;11674;52.428;13.584;2023-10-09T02:39:06;101731.44;;;11.75;85.55
23016;BME280;11674;52.428;13.584;2023-10-09T02:44:16;101752.56;;;11.71;85.46
23016;BME280;11674;52.428;13.584;2023-10-09T02:49:29;101757.00;;;11.67;85.73
23016;BME280;11674;52.428;13.584;2023-10-09T02:54:41;101733.66;;;11.63;85.72
23016;BME280;11674;52.428;13.584;2023-10-09T02:59:51;101708.06;;;11.66;85.83
23016;BME280;11674;52.428;13.584;2023-10-09T03:05:03;101699.72;;;11.66;86.07
23016;BME280;11674;52.428;13.584;2023-10-09T03:10:13;101697.53;;;11.68;85.77
23016;BME280;11674;52.428;13.584;2023-10-09T03:15:26;101679.75;;;11.69;85.92
23016;BME280;11674;52.428;13.584;2023-10-09T03:20:33;101670.84;;;11.72;86.04
23016;BME280;11674;52.428;13.584;2023-10-09T03:25:43;101651.38;;;11.67;86.11
23016;BME280;11674;52.428;13.584;2023-10-09T03:30:50;101641.34;;;11.61;86.13
23016;BME280;11674;52.428;13.584;2023-10-09T03:36:00;101623.53;;;11.57;86.03
23016;BME280;11674;52.428;13.584;2023-10-09T03:41:09;101625.53;;;11.61;86.13
23016;BME280;11674;52.428;13.584;2023-10-09T03:46:17;101616.06;;;11.62;86.38
23016;BME280;11674;52.428;13.584;2023-10-09T03:51:24;101603.56;;;11.60;86.32
23016;BME280;11674;52.428;13.584;2023-10-09T03:56:36;101580.22;;;11.66;86.27
23016;BME280;11674;52.428;13.584;2023-10-09T04:01:43;101558.00;;;11.66;86.29
23016;BME280;11674;52.428;13.584;2023-10-09T04:06:50;101559.38;;;11.68;86.11
23016;BME280;11674;52.428;13.584;2023-10-09T04:12:00;101560.50;;;11.67;86.21
23016;BME280;11674;52.428;13.584;2023-10-09T04:17:07;101583.00;;;11.61;85.82
23016;BME280;11674;52.428;13.584;2023-10-09T04:22:14;101592.97;;;11.47;85.86
23016;BME280;11674;52.428;13.584;2023-10-09T04:27:24;101601.84;;;11.39;86.05
23016;BME280;11674;52.428;13.584;2023-10-09T04:32:31;101588.22;;;11.32;85.92
23016;BME280;11674;52.428;13.584;2023-10-09T04:37:40;101577.69;;;11.39;86.48
23016;BME280;11674;52.428;13.584;2023-10-09T04:42:50;101552.97;;;11.48;86.37
23016;BME280;11674;52.428;13.584;2023-10-09T04:47:57;101590.22;;;11.52;86.21
23016;BME280;11674;52.428;13.584;2023-10-09T04:53:04;101579.06;;;11.57;86.08
23016;BME280;11674;52.428;13.584;2023-10-09T04:58:11;101576.28;;;11.57;85.99
23016;BME280;11674;52.428;13.584;2023-10-09T05:03:23;101567.69;;;11.58;86.19
23016;BME280;11674;52.428;13.584;2023-10-09T05:08:30;101567.44;;;11.60;86.03
23016;BME280;11674;52.428;13.584;2023-10-09T05:13:39;101553.53;;;11.60;86.00
23016;BME280;11674;52.428;13.584;2023-10-09T05:18:46;101547.72;;;11.61;85.51
23016;BME280;11674;52.428;13.584;2023-10-09T05:23:54;101555.16;;;11.56;85.56
23016;BME280;11674;52.428;13.584;2023-10-09T05:29:01;101546.28;;;11.54;85.97
23016;BME280;11674;52.428;13.584;2023-10-09T05:34:12;101546.31;;;11.59;85.88
23016;BME280;11674;52.428;13.584;2023-10-09T05:39:19;101543.78;;;11.57;85.78
23016;BME280;11674;52.428;13.584;2023-10-09T05:44:29;101531.59;;;11.63;86.02
23016;BME280;11674;52.428;13.584;2023-10-09T05:49:36;101536.34;;;11.68;85.98
23016;BME280;11674;52.428;13.584;2023-10-09T05:54:43;101533.81;;;11.71;86.06
23016;BME280;11674;52.428;13.584;2023-10-09T05:59:53;101552.16;;;11.77;86.09
23016;BME280;11674;52.428;13.584;2023-10-09T06:05:00;101556.06;;;11.81;86.01
23016;BME280;11674;52.428;13.584;2023-10-09T06:10:10;101539.06;;;11.78;85.80
23016;BME280;11674;52.428;13.584;2023-10-09T06:15:19;101541.31;;;11.81;85.94
23016;BME280;11674;52.428;13.584;2023-10-09T06:20:28;101547.41;;;11.83;85.69
23016;BME280;11674;52.428;13.584;2023-10-09T06:25:35;101537.13;;;11.83;85.75
23016;BME280;11674;52.428;13.584;2023-10-09T06:30:43;101527.13;;;11.92;86.01
23016;BME280;11674;52.428;13.584;2023-10-09T06:35:52;101521.84;;;11.96;85.77
23016;BME280;11674;52.428;13.584;2023-10-09T06:40:59;101527.94;;;11.93;85.73
23016;BME280;11674;52.428;13.584;2023-10-09T06:46:15;101526.53;;;12.00;85.75
23016;BME280;11674;52.428;13.584;2023-10-09T06:51:22;101514.28;;;12.11;86.03
23016;BME280;11674;52.428;13.584;2023-10-09T06:56:30;101523.13;;;12.23;86.05
23016;BME280;11674;52.428;13.584;2023-10-09T07:01:37;101503.38;;;12.30;85.52
23016;BME280;11674;52.428;13.584;2023-10-09T07:06:48;101508.38;;;12.33;85.61
23016;BME280;11674;52.428;13.584;2023-10-09T07:11:55;101504.47;;;12.39;85.85
23016;BME280;11674;52.428;13.584;2023-10-09T07:17:06;101501.66;;;12.44;85.65
23016;BME280;11674;52.428;13.584;2023-10-09T07:22:17;101516.09;;;12.51;85.72
23016;BME280;11674;52.428;13.584;2023-10-09T07:27:25;101500.47;;;12.60;85.85
23016;BME280;11674;52.428;13.584;2023-10-09T07:32:37;101498.78;;;12.64;85.52
23016;BME280;11674;52.428;13.584;2023-10-09T07:37:44;101509.91;;;12.64;85.73
23016;BME280;11674;52.428;13.584;2023-10-09T07:42:51;101502.09;;;12.71;85.72
23016;BME280;11674;52.428;13.584;2023-10-09T07:47:58;101513.69;;;12.83;85.66
23016;BME280;11674;52.428;13.584;2023-10-09T07:53:08;101518.94;;;12.94;85.58
23016;BME280;11674;52.428;13.584;2023-10-09T07:58:17;101512.25;;;12.95;85.47
23016;BME280;11674;52.428;13.584;2023-10-09T08:03:25;101516.97;;;13.00;85.74
23016;BME280;11674;52.428;13.584;2023-10-09T08:08:39;101531.16;;;13.03;85.56
23016;BME280;11674;52.428;13.584;2023-10-09T08:13:48;101541.44;;;13.08;85.13
23016;BME280;11674;52.428;13.584;2023-10-09T08:19:04;101545.03;;;13.08;85.16
23016;BME280;11674;52.428;13.584;2023-10-09T08:24:11;101562.06;;;13.07;85.22
23016;BME280;11674;52.428;13.584;2023-10-09T08:29:23;101566.56;;;12.98;84.95
23016;BME280;11674;52.428;13.584;2023-10-09T08:34:31;101569.63;;;12.91;85.04
23016;BME280;11674;52.428;13.584;2023-10-09T08:39:41;101565.47;;;12.89;85.32
23016;BME280;11674;52.428;13.584;2023-10-09T08:44:51;101554.03;;;12.95;85.40
23016;BME280;11674;52.428;13.584;2023-10-09T08:50:00;101557.38;;;12.97;85.38
23016;BME280;11674;52.428;13.584;2023-10-09T08:55:07;101561.78;;;13.03;85.42
23016;BME280;11674;52.428;13.584;2023-10-09T09:00:21;101552.34;;;13.04;85.21
23016;BME280;11674;52.428;13.584;2023-10-09T09:05:28;101547.78;;;13.18;85.83
23016;BME280;11674;52.428;13.584;2023-10-09T09:10:35;101539.06;;;13.30;85.53
23016;BME280;11674;52.428;13.584;2023-10-09T09:15:46;101540.16;;;13.34;85.14
23016;BME280;11674;52.428;13.584;2023-10-09T09:20:57;101536.53;;;13.33;85.68
23016;BME280;11674;52.428;13.584;2023-10-09T09:26:05;101527.38;;;13.28;84.86
23016;BME280;11674;52.428;13.584;2023-10-09T09:31:15;101515.38;;;13.32;85.60
23016;BME280;11674;52.428;13.584;2023-10-09T09:36:22;101523.91;;;13.46;85.57
23016;BME280;11674;52.428;13.584;2023-10-09T09:41:29;101522.03;;;13.65;85.69
23016;BME280;11674;52.428;13.584;2023-10-09T09:46:37;101530.69;;;13.68;85.08
23016;BME280;11674;52.428;13.584;2023-10-09T09:51:45;101527.41;;;13.56;84.99
23016;BME280;11674;52.428;13.584;2023-10-09T09:56:53;101536.63;;;13.57;85.09
23016;BME280;11674;52.428;13.584;2023-10-09T10:02:03;101542.97;;;13.62;85.46
23016;BME280;11674;52.428;13.584;2023-10-09T10:07:10;101548.75;;;13.76;85.49
23016;BME280;11674;52.428;13.584;2023-10-09T10:12:50;101542.53;;;13.84;85.17
23016;BME280;11674;52.428;13.584;2023-10-09T10:23:17;101539.72;;;13.84;85.35
23016;BME280;11674;52.428;13.584;2023-10-09T10:28:26;101545.84;;;13.86;84.92
23016;BME280;11674;52.428;13.584;2023-10-09T10:34:06;101533.91;;;13.80;85.29
23016;BME280;11674;52.428;13.584;2023-10-09T10:39:13;101526.03;;;13.87;85.20
23016;BME280;11674;52.428;13.584;2023-10-09T10:44:31;101513.94;;;13.97;85.31
23016;BME280;11674;52.428;13.584;2023-10-09T10:49:43;101516.44;;;13.98;85.40
23016;BME280;11674;52.428;13.584;2023-10-09T10:54:50;101525.44;;;14.19;85.63
23016;BME280;11674;52.428;13.584;2023-10-09T10:59:57;101518.66;;;14.30;85.50
23016;BME280;11674;52.428;13.584;2023-10-09T11:05:04;101511.59;;;14.37;85.33
23016;BME280;11674;52.428;13.584;2023-10-09T11:10:15;101508.34;;;14.49;85.23
23016;BME280;11674;52.428;13.584;2023-10-09T11:15:35;101512.78;;;14.50;84.46
23016;BME280;11674;52.428;13.584;2023-10-09T11:20:48;101508.28;;;14.30;84.26
23016;BME280;11674;52.428;13.584;2023-10-09T11:25:56;101509.13;;;14.31;85.36
23016;BME280;11674;52.428;13.584;2023-10-09T11:31:07;101503.06;;;14.47;85.35
23016;BME280;11674;52.428;13.584;2023-10-09T11:36:15;101502.34;;;14.60;84.79
23016;BME280;11674;52.428;13.584;2023-10-09T11:41:25;101474.19;;;14.57;84.97
23016;BME280;11674;52.428;13.584;2023-10-09T11:46:33;101480.97;;;14.51;84.49
23016;BME280;11674;52.428;13.584;2023-10-09T11:51:40;101476.56;;;14.45;84.96
23016;BME280;11674;52.428;13.584;2023-10-09T11:56:49;101476.97;;;14.57;85.40
23016;BME280;11674;52.428;13.584;2023-10-09T12:02:00;101475.00;;;14.57;85.12
23016;BME280;11674;52.428;13.584;2023-10-09T12:07:08;101458.41;;;14.66;85.63
23016;BME280;11674;52.428;13.584;2023-10-09T12:12:20;101463.91;;;14.71;85.39
23016;BME280;11674;52.428;13.584;2023-10-09T12:17:30;101467.09;;;14.64;85.34
23016;BME280;11674;52.428;13.584;2023-10-09T12:22:42;101466.06;;;14.79;86.41
23016;BME280;11674;52.428;13.584;2023-10-09T12:27:49;101469.31;;;14.86;85.46
23016;BME280;11674;52.428;13.584;2023-10-09T12:32:59;101471.03;;;14.82;85.15
23016;BME280;11674;52.428;13.584;2023-10-09T12:38:06;101471.41;;;14.75;85.19
23016;BME280;11674;52.428;13.584;2023-10-09T12:43:14;101477.44;;;14.64;85.04
23016;BME280;11674;52.428;13.584;2023-10-09T12:48:23;101471.97;;;14.54;85.11
23016;BME280;11674;52.428;13.584;2023-10-09T12:53:30;101471.25;;;14.48;84.98
23016;BME280;11674;52.428;13.584;2023-10-09T12:58:38;101463.72;;;14.44;85.22
23016;BME280;11674;52.428;13.584;2023-10-09T13:03:45;101456.44;;;14.48;85.62
23016;BME280;11674;52.428;13.584;2023-10-09T13:08:55;101451.06;;;14.51;85.17
23016;BME280;11674;52.428;13.584;2023-10-09T13:14:02;101453.28;;;14.54;84.95
23016;BME280;11674;52.428;13.584;2023-10-09T13:19:11;101449.13;;;14.52;85.24
23016;BME280;11674;52.428;13.584;2023-10-09T13:24:19;101456.44;;;14.48;85.07
23016;BME280;11674;52.428;13.584;2023-10-09T13:29:26;101456.78;;;14.41;85.25
23016;BME280;11674;52.428;13.584;2023-10-09T13:34:33;101474.66;;;14.40;85.52
23016;BME280;11674;52.428;13.584;2023-10-09T13:39:42;101463.22;;;14.42;85.64
23016;BME280;11674;52.428;13.584;2023-10-09T13:44:49;101480.66;;;14.52;85.36
23016;BME280;11674;52.428;13.584;2023-10-09T13:49:56;101470.84;;;14.55;84.91
23016;BME280;11674;52.428;13.584;2023-10-09T13:55:03;101464.44;;;14.54;85.37
23016;BME280;11674;52.428;13.584;2023-10-09T14:00:16;101468.84;;;14.60;85.30
23016;BME280;11674;52.428;13.584;2023-10-09T14:05:23;101465.25;;;14.55;84.84
23016;BME280;11674;52.428;13.584;2023-10-09T14:10:30;101465.78;;;14.38;85.19
23016;BME280;11674;52.428;13.584;2023-10-09T14:15:37;101455.41;;;14.39;85.48
23016;BME280;11674;52.428;13.584;2023-10-09T14:20:44;101456.50;;;14.43;85.20
23016;BME280;11674;52.428;13.584;2023-10-09T14:25:51;101455.34;;;14.44;85.16
23016;BME280;11674;52.428;13.584;2023-10-09T14:30:58;101449.25;;;14.42;85.44
23016;BME280;11674;52.428;13.584;2023-10-09T14:36:05;101456.78;;;14.41;85.56
23016;BME280;11674;52.428;13.584;2023-10-09T14:41:12;101445.31;;;14.43;85.56
23016;BME280;11674;52.428;13.584;2023-10-09T14:46:19;101448.75;;;14.40;85.14
23016;BME280;11674;52.428;13.584;2023-10-09T14:51:26;101435.28;;;14.42;85.66
23016;BME280;11674;52.428;13.584;2023-10-09T14:56:33;101440.81;;;14.47;85.73
23016;BME280;11674;52.428;13.584;2023-10-09T15:01:40;101433.03;;;14.44;85.31
23016;BME280;11674;52.428;13.584;2023-10-09T15:06:47;101435.28;;;14.42;85.66
23016;BME280;11674;52.428;13.584;2023-10-09T15:11:54;101432.50;;;14.42;85.38
23016;BME280;11674;52.428;13.584;2023-10-09T15:17:01;101422.53;;;14.36;85.18
23016;BME280;11674;52.428;13.584;2023-10-09T15:22:08;101443.72;;;14.37;85.34
23016;BME280;11674;52.428;13.584;2023-10-09T15:27:15;101446.00;;;14.35;85.55
23016;BME280;11674;52.428;13.584;2023-10-09T15:32:22;101448.31;;;14.28;85.34
23016;BME280;11674;52.428;13.584;2023-10-09T15:37:29;101448.59;;;14.26;85.31
23016;BME280;11674;52.428;13.584;2023-10-09T15:42:36;101449.00;;;14.15;85.13
23016;BME280;11674;52.428;13.584;2023-10-09T15:47:43;101456.31;;;14.11;85.35
23016;BME280;11674;52.428;13.584;2023-10-09T15:52:53;101453.56;;;14.06;85.41
23016;BME280;11674;52.428;13.584;2023-10-09T15:58:01;101472.59;;;14.04;85.54
23016;BME280;11674;52.428;13.584;2023-10-09T16:03:08;101475.09;;;14.05;85.49
23016;BME280;11674;52.428;13.584;2023-10-09T16:08:15;101482.13;;;13.98;85.33
23016;BME280;11674;52.428;13.584;2023-10-09T16:13:22;101491.41;;;13.88;85.43
23016;BME280;11674;52.428;13.584;2023-10-09T16:18:29;101504.38;;;13.79;85.15
23016;BME280;11674;52.428;13.584;2023-10-09T16:23:36;101492.38;;;13.79;85.34
23016;BME280;11674;52.428;13.584;2023-10-09T16:28:43;101493.50;;;13.78;85.58
23016;BME280;11674;52.428;13.584;2023-10-09T16:33:50;101496.84;;;13.75;85.77
23016;BME280;11674;52.428;13.584;2023-10-09T16:38:57;101499.16;;;13.68;85.55
23016;BME280;11674;52.428;13.584;2023-10-09T16:44:04;101486.16;;;13.58;85.66
23016;BME280;11674;52.428;13.584;2023-10-09T16:49:11;101493.75;;;13.48;85.83
23016;BME280;11674;52.428;13.584;2023-10-09T16:54:18;101489.91;;;13.44;85.99
23016;BME280;11674;52.428;13.584;2023-10-09T16:59:25;101476.84;;;13.39;86.01
23016;BME280;11674;52.428;13.584;2023-10-09T17:04:32;101498.31;;;13.39;85.84
23016;BME280;11674;52.428;13.584;2023-10-09T17:09:40;101513.06;;;13.39;86.10
23016;BME280;11674;52.428;13.584;2023-10-09T17:14:47;101516.13;;;13.38;85.85
23016;BME280;11674;52.428;13.584;2023-10-09T17:19:54;101531.81;;;13.34;85.88
23016;BME280;11674;52.428;13.584;2023-10-09T17:25:01;101510.59;;;13.33;86.00
23016;BME280;11674;52.428;13.584;2023-10-09T17:30:09;101529.00;;;13.34;85.89
23016;BME280;11674;52.428;13.584;2023-10-09T17:35:16;101533.47;;;13.35;86.15
23016;BME280;11674;52.428;13.584;2023-10-09T17:40:23;101546.84;;;13.33;85.65
23016;BME280;11674;52.428;13.584;2023-10-09T17:45:30;101545.22;;;13.27;86.17
23016;BME280;11674;52.428;13.584;2023-10-09T17:50:42;101540.75;;;13.26;86.09
23016;BME280;11674;52.428;13.584;2023-10-09T17:55:52;101529.03;;;13.29;86.14
23016;BME280;11674;52.428;13.584;2023-10-09T18:01:00;101521.75;;;13.33;86.09
23016;BME280;11674;52.428;13.584;2023-10-09T18:06:07;101524.53;;;13.33;85.82
23016;BME280;11674;52.428;13.584;2023-10-09T18:11:14;101520.66;;;13.34;86.04
23016;BME280;11674;52.428;13.584;2023-10-09T18:16:21;101518.97;;;13.33;86.13
23016;BME280;11674;52.428;13.584;2023-10-09T18:21:28;101520.09;;;13.32;85.78
23016;BME280;11674;52.428;13.584;2023-10-09T18:26:35;101514.22;;;13.33;85.95
23016;BME280;11674;52.428;13.584;2023-10-09T18:31:42;101502.25;;;13.33;86.03
23016;BME280;11674;52.428;13.584;2023-10-09T18:36:49;101503.13;;;13.28;85.91
23016;BME280;11674;52.428;13.584;2023-10-09T18:41:56;101497.56;;;13.28;86.08
23016;BME280;11674;52.428;13.584;2023-10-09T18:47:10;101495.59;;;13.29;85.94
23016;BME280;11674;52.428;13.584;2023-10-09T18:52:17;101485.28;;;13.29;86.02
23016;BME280;11674;52.428;13.584;2023-10-09T18:57:24;101486.41;;;13.28;85.80
23016;BME280;11674;52.428;13.584;2023-10-09T19:02:31;101492.56;;;13.25;86.19
23016;BME280;11674;52.428;13.584;2023-10-09T19:07:38;101494.81;;;13.23;86.00
23016;BME280;11674;52.428;13.584;2023-10-09T19:12:45;101500.66;;;13.22;85.91
23016;BME280;11674;52.428;13.584;2023-10-09T19:17:52;101505.91;;;13.28;86.26
23016;BME280;11674;52.428;13.584;2023-10-09T19:22:59;101510.34;;;13.29;86.33
23016;BME280;11674;52.428;13.584;2023-10-09T19:28:06;101514.50;;;13.32;86.13
23016;BME280;11674;52.428;13.584;2023-10-09T19:33:13;101530.09;;;13.33;85.98
23016;BME280;11674;52.428;13.584;2023-10-09T19:38:20;101523.44;;;13.34;86.08
23016;BME280;11674;52.428;13.584;2023-10-09T19:43:27;101535.41;;;13.34;85.89
23016;BME280;11674;52.428;13.584;2023-10-09T19:48:34;101530.97;;;13.33;86.09
23016;BME280;11674;52.428;13.584;2023-10-09T19:53:42;101531.81;;;13.34;85.89
23016;BME280;11674;52.428;13.584;2023-10-09T19:58:51;101537.38;;;13.34;86.16
23016;BME280;11674;52.428;13.584;2023-10-09T20:03:58;101539.06;;;13.30;85.87
23016;BME280;11674;52.428;13.584;2023-10-09T20:09:05;101534.03;;;13.32;86.26
23016;BME280;11674;52.428;13.584;2023-10-09T20:14:12;101540.72;;;13.31;86.14
23016;BME280;11674;52.428;13.584;2023-10-09T20:19:19;101542.97;;;13.29;85.89
23016;BME280;11674;52.428;13.584;2023-10-09T20:24:26;101542.16;;;13.23;85.86
23016;BME280;11674;52.428;13.584;2023-10-09T20:29:33;101554.47;;;13.17;86.33
23016;BME280;11674;52.428;13.584;2023-10-09T20:34:41;101558.63;;;13.20;86.46
23016;BME280;11674;52.428;13.584;2023-10-09T20:39:47;101556.69;;;13.20;86.17
23016;BME280;11674;52.428;13.584;2023-10-09T20:44:54;101559.75;;;13.19;86.27
23016;BME280;11674;52.428;13.584;2023-10-09T20:50:01;101553.91;;;13.20;86.36
23016;BME280;11674;52.428;13.584;2023-10-09T20:55:08;101562.25;;;13.20;86.08
23016;BME280;11674;52.428;13.584;2023-10-09T21:00:16;101561.44;;;13.20;86.01
23016;BME280;11674;52.428;13.584;2023-10-09T21:05:23;101563.38;;;13.19;86.13
23016;BME280;11674;52.428;13.584;2023-10-09T21:10:30;101559.75;;;13.19;85.97
23016;BME280;11674;52.428;13.584;2023-10-09T21:15:47;101576.75;;;13.17;85.94
23016;BME280;11674;52.428;13.584;2023-10-09T21:20:54;101567.31;;;13.13;86.09
23016;BME280;11674;52.428;13.584;2023-10-09T21:26:01;101564.84;;;13.12;85.93
23016;BME280;11674;52.428;13.584;2023-10-09T21:31:08;101566.78;;;13.11;86.07
23016;BME280;11674;52.428;13.584;2023-10-09T21:36:22;101570.72;;;13.05;85.79
23016;BME280;11674;52.428;13.584;2023-10-09T21:41:29;101572.13;;;13.03;86.05
23016;BME280;11674;52.428;13.584;2023-10-09T21:46:36;101584.66;;;13.00;86.15
23016;BME280;11674;52.428;13.584;2023-10-09T21:51:43;101580.47;;;13.03;86.04
23016;BME280;11674;52.428;13.584;2023-10-09T21:56:50;101574.66;;;12.99;86.41
23016;BME280;11674;52.428;13.584;2023-10-09T22:01:57;101577.13;;;13.01;86.32
23016;BME280;11674;52.428;13.584;2023-10-09T22:07:04;101569.06;;;12.94;85.94
23016;BME280;11674;52.428;13.584;2023-10-09T22:12:11;101577.16;;;12.91;86.38
23016;BME280;11674;52.428;13.584;2023-10-09T22:17:18;101576.56;;;12.94;86.38
23016;BME280;11674;52.428;13.584;2023-10-09T22:22:28;101582.16;;;12.99;86.27
23016;BME280;11674;52.428;13.584;2023-10-09T22:27:35;101585.78;;;12.99;86.14
23016;BME280;11674;52.428;13.584;2023-10-09T22:32:42;101581.59;;;13.02;86.47
23016;BME280;11674;52.428;13.584;2023-10-09T22:37:49;101589.09;;;13.06;86.20
23016;BME280;11674;52.428;13.584;2023-10-09T22:42:56;101590.78;;;13.02;86.04
23016;BME280;11674;52.428;13.584;2023-10-09T22:48:03;101586.31;;;13.01;86.37
23016;BME280;11674;52.428;13.584;2023-10-09T22:53:14;101592.16;;;13.05;86.29
23016;BME280;11674;52.428;13.584;2023-10-09T22:58:25;101578.78;;;13.07;86.17
23016;BME280;11674;52.428;13.584;2023-10-09T23:03:32;101574.88;;;13.08;86.07
23016;BME280;11674;52.428;13.584;2023-10-09T23:08:40;101576.53;;;13.09;86.28
23016;BME280;11674;52.428;13.584;2023-10-09T23:13:46;101575.13;;;13.11;86.29
23016;BME280;11674;52.428;13.584;2023-10-09T23:18:53;101582.09;;;13.14;85.97
23016;BME280;11674;52.428;13.584;2023-10-09T23:24:00;101582.91;;;13.14;86.08
23016;BME280;11674;52.428;13.584;2023-10-09T23:29:07;101581.81;;;13.15;86.13
23016;BME280;11674;52.428;13.584;2023-10-09T23:34:14;101587.38;;;13.15;85.95
23016;BME280;11674;52.428;13.584;2023-10-09T23:39:21;101585.97;;;13.18;85.85
23016;BME280;11674;52.428;13.584;2023-10-09T23:44:28;101595.41;;;13.17;86.30
23016;BME280;11674;52.428;13.584;2023-10-09T23:49:36;101593.47;;;13.17;86.24
23016;BME280;11674;52.428;13.584;2023-10-09T23:54:43;101585.41;;;13.16;85.91
23016;BME280;11674;52.428;13.584;2023-10-09T23:59:49;101585.69;;;13.14;86.13
